Aérodrome :
LOGIN :

S'inscrire | Disclaimer

   EN    FR    IT 

 










Légende :    VFR   VFR Marginal   IFR   IFR Intensif   IFR Très Intensif
Visi : 
Plafond : 
>= 8 km
>= 3000ft
5 à 8 km
1000 à 3000 ft
1500m à 5 km
500 à 1000 ft
800 à 1500m
200 à 500 ft
< 800m
< 200 ft
Symboles :   Orages  Brouillard  Fortes neiges  Fortes précipitations  Vent > 20 kt
SIGMETs :   Divers  Orages  Givrage  Turbulence  Onde Orograph.  Cendres Volcan.






- Altitude de l'aérodrome : 302 ft
- Code IATA : CGN


EDDK - Cologne Bonn

DERNIER METAR :
  • 100420Z VRB02KT CAVOK 01/00 Q1024 NOSIG

METARs EXPIRÉS :
  • 100350Z VRB01KT CAVOK 01/00 Q1024 NOSIG
  • 100320Z VRB02KT CAVOK 01/00 Q1024 NOSIG
  • 100250Z VRB02KT CAVOK 02/01 Q1023 NOSIG
  • 100220Z VRB02KT CAVOK 02/01 Q1023 NOSIG
  • 100150Z 33004KT 300V360 CAVOK 02/00 Q1022 NOSIG

TAF TAF EDDK
Valide du 10 à 00h jusqu'au 11 à 06h UTC


092300Z 1000/1106 29008KT 9999 FEW030
BECMG 1004/1006 23004KT
BECMG 1006/1009 17005KT
BECMG 1012/1015 16010KT
TEMPO 1022/1106 4000 RA



MET'MAP, la Météo Aéronautique d'un coup d'oeil ! - Copyright ORBIFLY Décembre 2007 - Disclaimer

ORBIFLY MET'MAP TEAM :

Programmation & Développement : Alexandra Zaïnal
Sur une idée originale de : Baudouin d'Aumeries
Assistance à la programmation : Marc-Olivier Méhu
Soutien technique & logistique : Manuel Goepfert

Contact : metmap@orbifly.com




SOURCES & CREDITS :

   NOAA